createdAt,value
2022-10-04T00:04:11.771Z,10.9
2022-10-04T00:09:24.706Z,11.1
2022-10-04T00:13:54.770Z,11.1
2022-10-04T00:19:12.651Z,11
2022-10-04T00:23:53.182Z,11.2
2022-10-04T00:29:06.102Z,11
2022-10-04T00:30:20.526Z,11.1
2022-10-04T00:33:36.743Z,11.2
2022-10-04T00:34:45.990Z,11
2022-10-04T00:42:52.172Z,11
2022-10-04T00:52:07.017Z,11.1
2022-10-04T00:53:17.120Z,10.9
2022-10-04T00:58:02.848Z,11
2022-10-04T01:03:15.808Z,11
2022-10-04T01:08:28.901Z,11.1
2022-10-04T01:13:41.760Z,11.1
2022-10-04T01:18:22.092Z,11.1
2022-10-04T01:23:04.980Z,10.9
2022-10-04T01:28:37.628Z,11.1
2022-10-04T01:36:48.752Z,10.9
2022-10-04T01:42:11.480Z,11
2022-10-04T01:43:21.853Z,11
2022-10-04T01:50:12.434Z,10.9
2022-10-04T01:55:15.496Z,11
2022-10-04T01:59:58.708Z,11.1
2022-10-04T02:04:41.812Z,11
2022-10-04T02:09:34.705Z,11
2022-10-04T02:14:04.724Z,11
2022-10-04T02:19:22.528Z,11
2022-10-04T02:24:05.424Z,11.1
2022-10-04T02:29:36.012Z,11.1
2022-10-04T02:33:09.619Z,11.1
2022-10-04T02:37:52.963Z,11.2
2022-10-04T02:39:02.420Z,11.2
2022-10-04T02:43:50.267Z,11.2
2022-10-04T02:49:29.179Z,10.9
2022-10-04T02:55:07.148Z,11.1
2022-10-04T03:00:00.155Z,11
2022-10-04T03:05:38.021Z,11.1
2022-10-04T03:09:06.384Z,11.1
2022-10-04T03:13:49.269Z,11
2022-10-04T03:16:52.808Z,10.9
2022-10-04T03:20:16.400Z,11
2022-10-04T03:27:17.022Z,10.9
2022-10-04T03:35:23.715Z,10.9
2022-10-04T03:40:44.156Z,10.9
2022-10-04T03:41:51.093Z,10.9
2022-10-04T03:57:43.113Z,10.8
2022-10-04T03:58:52.307Z,11
2022-10-04T04:04:07.027Z,10.9
2022-10-04T04:09:32.588Z,10.9
2022-10-04T04:10:52.004Z,10.9
2022-10-04T04:16:06.577Z,11.1
2022-10-04T04:18:23.951Z,11.1
2022-10-04T04:28:25.066Z,10.9
2022-10-04T04:33:39.170Z,11
2022-10-04T04:34:53.905Z,11
2022-10-04T04:39:55.983Z,10.8
2022-10-04T04:42:54.761Z,11
2022-10-04T04:43:58.771Z,11
2022-10-04T04:45:02.821Z,10.9
2022-10-04T04:46:28.218Z,10.8
2022-10-04T04:49:21.026Z,10.7
2022-10-04T04:50:25.134Z,10.7
2022-10-04T04:56:10.149Z,10.7
2022-10-04T04:57:16.291Z,10.8
2022-10-04T05:00:13.239Z,10.8
2022-10-04T05:01:17.411Z,10.8
2022-10-04T05:02:26.636Z,10.9
2022-10-04T05:03:33.223Z,10.9
2022-10-04T05:04:37.559Z,10.9
2022-10-04T05:07:31.743Z,10.8
2022-10-04T05:08:40.352Z,10.8
2022-10-04T05:12:31.935Z,10.8
2022-10-04T05:13:36.120Z,10.8
2022-10-04T05:17:58.891Z,10.8
2022-10-04T05:21:25.140Z,10.7
2022-10-04T05:28:27.658Z,10.7
2022-10-04T05:33:06.808Z,10.8
2022-10-04T05:38:23.852Z,10.9
2022-10-04T05:39:38.115Z,10.8
2022-10-04T05:44:21.768Z,10.8
2022-10-04T05:50:08.876Z,10.9
2022-10-04T05:51:23.401Z,10.8
2022-10-04T05:52:30.531Z,10.8
2022-10-04T05:53:39.578Z,10.7
2022-10-04T05:54:45.325Z,10.7
2022-10-04T05:55:50.557Z,10.8
2022-10-04T05:57:04.853Z,10.7
2022-10-04T05:58:17.217Z,10.8
2022-10-04T05:59:31.638Z,10.9
2022-10-04T06:00:43.841Z,11
2022-10-04T06:02:19.924Z,11.1
2022-10-04T06:03:39.229Z,11.1
2022-10-04T06:04:48.449Z,11.1
2022-10-04T06:05:57.673Z,10.8
2022-10-04T06:07:08.403Z,11
2022-10-04T06:08:15.337Z,10.9
2022-10-04T06:09:29.726Z,10.9
2022-10-04T06:10:38.965Z,10.8
2022-10-04T06:12:11.341Z,10.8
2022-10-04T06:13:26.257Z,10.9
2022-10-04T06:14:38.237Z,11
2022-10-04T06:17:22.353Z,11
2022-10-04T06:20:18.941Z,11
2022-10-04T06:21:33.317Z,10.8
2022-10-04T06:22:47.744Z,10.7
2022-10-04T06:24:01.954Z,10.7
2022-10-04T06:25:06.195Z,10.8
2022-10-04T06:26:10.549Z,10.6
2022-10-04T06:29:12.193Z,10.8
2022-10-04T06:30:19.153Z,10.7
2022-10-04T06:34:53.029Z,11
2022-10-04T06:36:07.674Z,11.1
2022-10-04T06:37:18.433Z,11.2
2022-10-04T06:38:31.045Z,11.2
2022-10-04T06:39:40.889Z,11.1
2022-10-04T06:40:45.535Z,11.1
2022-10-04T06:42:03.165Z,11.2
2022-10-04T06:43:19.085Z,11.1
2022-10-04T06:44:33.569Z,11.2
2022-10-04T06:45:48.120Z,11.1
2022-10-04T06:47:11.213Z,11.2
2022-10-04T06:48:20.622Z,11.2
2022-10-04T06:49:34.993Z,11.1
2022-10-04T06:50:44.253Z,11.1
2022-10-04T06:51:58.617Z,11.3
2022-10-04T06:54:58.788Z,11.3
2022-10-04T06:56:10.860Z,11.4
2022-10-04T06:57:19.998Z,11.4
2022-10-04T07:00:22.058Z,11.4
2022-10-04T07:01:26.168Z,11.3
2022-10-04T07:02:35.533Z,11.4
2022-10-04T07:03:51.319Z,11.4
2022-10-04T07:05:09.681Z,11.5
2022-10-04T07:11:24.003Z,11.7
2022-10-04T07:16:29.441Z,11.6
2022-10-04T07:21:47.205Z,11.5
2022-10-04T07:23:01.600Z,11.6
2022-10-04T07:27:31.175Z,11.6
2022-10-04T07:31:55.489Z,12.1
2022-10-04T07:33:04.873Z,12
2022-10-04T07:36:29.113Z,12.1
2022-10-04T07:41:48.721Z,11.8
2022-10-04T07:47:03.433Z,11.9
2022-10-04T07:48:17.813Z,12
2022-10-04T07:52:44.677Z,12.7
2022-10-04T07:57:40.001Z,12.6
2022-10-04T08:02:32.902Z,12.9
2022-10-04T08:03:47.201Z,13.1
2022-10-04T08:07:19.725Z,13.5
2022-10-04T08:12:37.383Z,13.4
2022-10-04T08:13:51.761Z,13.5
2022-10-04T08:17:43.511Z,13.9
2022-10-04T08:22:30.953Z,13.8
2022-10-04T08:29:45.962Z,13.5
2022-10-04T08:32:45.527Z,13.4
2022-10-04T08:37:32.973Z,13.4
2022-10-04T08:38:47.245Z,13.4
2022-10-04T08:43:21.136Z,13.4
2022-10-04T08:44:30.333Z,13.4
2022-10-04T08:50:17.613Z,13.5
2022-10-04T08:53:52.177Z,13.5
2022-10-04T08:55:06.444Z,13.5
2022-10-04T08:59:58.497Z,13.6
2022-10-04T09:01:12.935Z,13.6
2022-10-04T09:02:27.166Z,13.6
2022-10-04T09:03:36.161Z,13.6
2022-10-04T09:09:20.678Z,13.8
2022-10-04T09:14:39.897Z,13.8
2022-10-04T09:15:54.262Z,13.8
2022-10-04T09:20:46.560Z,13.8
2022-10-04T09:21:55.676Z,13.7
2022-10-04T09:23:07.528Z,13.8
2022-10-04T09:24:21.837Z,13.8
2022-10-04T09:27:53.986Z,13.8
2022-10-04T09:33:18.301Z,13.8
2022-10-04T09:38:40.791Z,13.9
2022-10-04T09:44:02.800Z,13.9
2022-10-04T09:48:46.984Z,14
2022-10-04T09:51:38.717Z,14.1
2022-10-04T09:52:47.904Z,14.1
2022-10-04T09:53:57.092Z,14.1
2022-10-04T09:59:42.056Z,13.9
2022-10-04T10:00:52.172Z,13.9
2022-10-04T10:02:06.960Z,14.2
2022-10-04T10:03:21.641Z,14.4
2022-10-04T10:04:30.801Z,14.4
2022-10-04T10:05:39.925Z,14.7
2022-10-04T10:06:54.290Z,14.7
2022-10-04T10:10:21.508Z,14.4
2022-10-04T10:13:28.815Z,14.1
2022-10-04T10:14:45.558Z,14.1
2022-10-04T10:15:54.841Z,14.5
2022-10-04T10:17:16.632Z,14.6
2022-10-04T10:18:31.010Z,14.7
2022-10-04T10:19:43.108Z,14.7
2022-10-04T10:20:57.536Z,15
2022-10-04T10:22:12.049Z,14.9
2022-10-04T10:23:26.372Z,14.8
2022-10-04T10:24:46.850Z,14.7
2022-10-04T10:25:53.660Z,14.4
2022-10-04T10:27:08.092Z,14.5
2022-10-04T10:28:22.411Z,14.4
2022-10-04T10:29:34.596Z,14.2
2022-10-04T10:30:49.290Z,14
2022-10-04T10:33:58.696Z,14.3
2022-10-04T10:36:58.344Z,14.9
2022-10-04T10:42:38.248Z,14.9
2022-10-04T10:44:12.784Z,15.1
2022-10-04T10:49:32.552Z,15.4
2022-10-04T10:50:48.945Z,15.6
2022-10-04T10:52:06.317Z,15.8
2022-10-04T10:53:15.473Z,15.8
2022-10-04T10:56:15.792Z,15.9
2022-10-04T10:57:30.209Z,15.9
2022-10-04T10:58:44.526Z,15.9
2022-10-04T10:59:59.087Z,15.9
2022-10-04T11:01:13.654Z,15.9
2022-10-04T11:02:42.502Z,15.9
2022-10-04T11:03:42.234Z,16
2022-10-04T11:04:51.471Z,15.8
2022-10-04T11:06:05.795Z,15.2
2022-10-04T11:07:14.933Z,15.4
2022-10-04T11:10:17.292Z,15.3
2022-10-04T11:11:29.411Z,15.2
2022-10-04T11:12:38.725Z,14.9
2022-10-04T11:15:41.071Z,14.8
2022-10-04T11:16:55.488Z,14.7
2022-10-04T11:22:14.939Z,14.3
2022-10-04T11:23:29.367Z,14.3
2022-10-04T11:24:38.548Z,14.4
2022-10-04T11:25:50.803Z,14.5
2022-10-04T11:28:58.050Z,14.9
2022-10-04T11:30:07.385Z,14.8
2022-10-04T11:33:06.772Z,14.7
2022-10-04T11:34:21.199Z,14.6
2022-10-04T11:35:35.555Z,14.5
2022-10-04T11:38:34.864Z,14.5
2022-10-04T11:39:49.204Z,14.5
2022-10-04T11:44:38.676Z,14.3
2022-10-04T11:47:14.050Z,14.3
2022-10-04T11:50:28.607Z,14.7
2022-10-04T11:51:43.076Z,14.7
2022-10-04T11:52:52.239Z,14.9
2022-10-04T11:54:06.982Z,15
2022-10-04T11:55:21.259Z,15.2
2022-10-04T11:56:35.607Z,15
2022-10-04T11:57:49.964Z,14.9
2022-10-04T11:59:10.148Z,14.9
2022-10-04T12:00:24.770Z,14.8
2022-10-04T12:01:28.959Z,15
2022-10-04T12:03:44.368Z,15.3
2022-10-04T12:04:53.796Z,15.5
2022-10-04T12:06:07.965Z,15.3
2022-10-04T12:07:19.824Z,15.5
2022-10-04T12:08:34.188Z,15.7
2022-10-04T12:09:48.570Z,15.8
2022-10-04T12:11:02.983Z,15.8
2022-10-04T12:12:13.440Z,15.9
2022-10-04T12:13:32.945Z,15.9
2022-10-04T12:14:50.089Z,15.9
2022-10-04T12:16:04.457Z,15.6
2022-10-04T12:17:11.579Z,15.7
2022-10-04T12:18:24.256Z,15.9
2022-10-04T12:19:38.957Z,15.7
2022-10-04T12:20:59.236Z,15.8
2022-10-04T12:22:08.535Z,15.5
2022-10-04T12:23:17.871Z,15.7
2022-10-04T12:24:29.772Z,15.9
2022-10-04T12:25:39.279Z,15.8
2022-10-04T12:26:53.697Z,16
2022-10-04T12:31:41.584Z,15.9
2022-10-04T12:40:57.611Z,14.9
2022-10-04T12:46:39.936Z,14.8
2022-10-04T12:47:49.203Z,14.9
2022-10-04T12:49:01.243Z,15
2022-10-04T12:50:18.375Z,14.6
2022-10-04T12:51:30.431Z,14.6
2022-10-04T12:52:45.199Z,14.7
2022-10-04T12:53:57.933Z,14.7
2022-10-04T12:55:06.317Z,14.6
2022-10-04T12:56:10.462Z,14.6
2022-10-04T12:57:29.457Z,14.6
2022-10-04T12:58:43.879Z,14.7
2022-10-04T12:59:53.143Z,14.6
2022-10-04T13:01:02.299Z,14.5
2022-10-04T13:02:10.360Z,14.5
2022-10-04T13:03:34.949Z,14.4
2022-10-04T13:04:44.347Z,14.6
2022-10-04T13:05:53.853Z,14.5
2022-10-04T13:07:05.849Z,14.5
2022-10-04T13:08:10.420Z,14.7
2022-10-04T13:09:22.416Z,14.8
2022-10-04T13:10:34.399Z,14.9
2022-10-04T13:11:41.323Z,14.7
2022-10-04T13:12:55.768Z,14.7
2022-10-04T13:14:05.431Z,14.5
2022-10-04T13:15:24.412Z,14.4
2022-10-04T13:17:50.561Z,14.6
2022-10-04T13:19:09.460Z,14.6
2022-10-04T13:20:19.417Z,14.4
2022-10-04T13:21:28.663Z,14.5
2022-10-04T13:22:58.527Z,14.5
2022-10-04T13:24:07.642Z,14.5
2022-10-04T13:25:22.019Z,14.4
2022-10-04T13:26:26.100Z,14.4
2022-10-04T13:32:03.243Z,14.5
2022-10-04T13:40:04.001Z,14.6
2022-10-04T13:44:56.111Z,14.7
2022-10-04T13:46:10.641Z,14.4
2022-10-04T13:47:25.739Z,14.6
2022-10-04T13:50:39.863Z,14.9
2022-10-04T13:51:47.209Z,14.9
2022-10-04T13:57:14.523Z,15
2022-10-04T14:02:29.171Z,14.9
2022-10-04T14:03:43.650Z,15
2022-10-04T14:08:34.032Z,15.2
2022-10-04T14:13:29.912Z,15.3
2022-10-04T14:14:44.284Z,15.3
2022-10-04T14:15:58.752Z,15.2
2022-10-04T14:19:03.346Z,15
2022-10-04T14:20:12.667Z,14.9
2022-10-04T14:25:37.295Z,15.2
2022-10-04T14:30:31.083Z,15.2
2022-10-04T14:31:45.953Z,14.9
2022-10-04T14:32:58.160Z,15
2022-10-04T14:36:02.033Z,15
2022-10-04T14:37:16.452Z,15
2022-10-04T14:42:42.035Z,15
2022-10-04T14:43:51.363Z,15
2022-10-04T14:47:26.745Z,14.8
2022-10-04T14:53:11.920Z,14.7
2022-10-04T14:58:04.443Z,14.9
2022-10-04T15:03:09.215Z,14.9
2022-10-04T15:07:58.716Z,14.8
2022-10-04T15:09:13.292Z,14.8
2022-10-04T15:13:09.173Z,14.7
2022-10-04T15:15:37.567Z,14.8
2022-10-04T15:18:00.975Z,14.6
2022-10-04T15:26:16.066Z,14.1
2022-10-04T15:27:20.247Z,14.2
2022-10-04T15:36:35.404Z,14.1
2022-10-04T15:40:11.748Z,14.2
2022-10-04T15:41:25.013Z,14.2
2022-10-04T15:46:44.061Z,14.1
2022-10-04T15:48:15.506Z,14.1
2022-10-04T15:49:30.067Z,14.1
2022-10-04T15:50:45.371Z,14.1
2022-10-04T15:51:59.808Z,14.1
2022-10-04T15:53:18.996Z,14.1
2022-10-04T15:54:30.859Z,14.1
2022-10-04T15:55:45.291Z,14.1
2022-10-04T15:56:50.167Z,14.1
2022-10-04T16:00:19.623Z,14
2022-10-04T16:03:01.739Z,13.9
2022-10-04T16:06:34.217Z,13.8
2022-10-04T16:07:41.499Z,13.8
2022-10-04T16:08:56.163Z,13.8
2022-10-04T16:10:11.531Z,13.7
2022-10-04T16:13:14.970Z,13.6
2022-10-04T16:16:18.282Z,13.6
2022-10-04T16:17:38.236Z,13.6
2022-10-04T16:21:05.522Z,13.5
2022-10-04T16:26:26.584Z,13.3
2022-10-04T16:31:19.871Z,13.2
2022-10-04T16:32:22.336Z,13.2
2022-10-04T16:37:53.568Z,13.1
2022-10-04T16:39:06.597Z,13.1
2022-10-04T16:40:15.971Z,13
2022-10-04T16:42:53.657Z,13
2022-10-04T16:46:18.349Z,12.9
2022-10-04T16:53:26.131Z,12.8
2022-10-04T16:54:40.642Z,12.8
2022-10-04T16:55:55.887Z,12.7
2022-10-04T16:57:10.323Z,12.7
2022-10-04T16:58:19.767Z,12.6
2022-10-04T17:01:12.658Z,12.5
2022-10-04T17:02:24.527Z,12.5
2022-10-04T17:03:31.381Z,12.4
2022-10-04T17:06:01.627Z,12.4
2022-10-04T17:09:34.319Z,12.3
2022-10-04T17:14:58.110Z,12.2
2022-10-04T17:16:12.553Z,12.1
2022-10-04T17:21:17.668Z,11.9
2022-10-04T17:22:31.872Z,11.9
2022-10-04T17:25:44.390Z,11.8
2022-10-04T17:27:01.964Z,11.8
2022-10-04T17:28:13.309Z,11.8
2022-10-04T17:33:35.814Z,11.7
2022-10-04T17:34:50.215Z,11.6
2022-10-04T17:40:09.030Z,11.5
2022-10-04T17:41:13.438Z,11.5
2022-10-04T17:46:05.517Z,11.4
2022-10-04T17:51:05.053Z,11.4
2022-10-04T17:52:19.767Z,11.4
2022-10-04T18:01:13.485Z,11.2
2022-10-04T18:02:25.440Z,11.2
2022-10-04T18:05:54.529Z,11.1
2022-10-04T18:06:58.606Z,11
2022-10-04T18:12:11.298Z,11
2022-10-04T18:13:25.729Z,11
2022-10-04T18:16:19.985Z,10.9
2022-10-04T18:17:26.844Z,11
2022-10-04T18:18:36.177Z,10.9
2022-10-04T18:21:20.945Z,11
2022-10-04T18:22:27.788Z,10.9
2022-10-04T18:25:21.909Z,10.9
2022-10-04T18:26:26.126Z,10.9
2022-10-04T18:27:30.326Z,10.9
2022-10-04T18:31:09.512Z,10.8
2022-10-04T18:34:02.478Z,10.8
2022-10-04T18:35:21.421Z,10.8
2022-10-04T18:36:30.986Z,10.8
2022-10-04T18:41:21.461Z,10.5
2022-10-04T18:42:25.513Z,10.5
2022-10-04T18:43:29.967Z,10.3
2022-10-04T18:45:01.761Z,10.4
2022-10-04T18:48:06.289Z,10.6
2022-10-04T18:49:18.529Z,10.6
2022-10-04T18:50:28.217Z,10.6
2022-10-04T18:51:32.384Z,10.6
2022-10-04T18:52:38.952Z,10.6
2022-10-04T18:53:58.256Z,10.6
2022-10-04T18:55:08.018Z,10.6
2022-10-04T18:56:30.497Z,10.6
2022-10-04T18:57:36.209Z,10.6
2022-10-04T18:58:45.783Z,10.6
2022-10-04T19:00:05.511Z,10.7
2022-10-04T19:03:05.009Z,10.7
2022-10-04T19:04:15.069Z,10.7
2022-10-04T19:05:21.981Z,10.7
2022-10-04T19:08:21.946Z,10.7
2022-10-04T19:09:31.712Z,10.7
2022-10-04T19:10:43.942Z,10.7
2022-10-04T19:15:36.402Z,10.6
2022-10-04T19:20:34.016Z,10.5
2022-10-04T19:21:41.497Z,10.5
2022-10-04T19:25:13.525Z,10.6
2022-10-04T19:26:31.959Z,10.6
2022-10-04T19:27:32.380Z,10.6
2022-10-04T19:28:39.981Z,10.6
2022-10-04T19:29:44.298Z,10.4
2022-10-04T19:30:53.628Z,10.5
2022-10-04T19:33:58.805Z,10.5
2022-10-04T19:35:08.940Z,10.5
2022-10-04T19:36:23.669Z,10.6
2022-10-04T19:37:38.137Z,10.6
2022-10-04T19:38:52.437Z,10.6
2022-10-04T19:40:01.712Z,10.7
2022-10-04T19:42:31.941Z,10.6
2022-10-04T19:43:39.162Z,10.5
2022-10-04T19:44:48.525Z,10.6
2022-10-04T19:46:02.932Z,10.7
2022-10-04T19:47:15.449Z,10.7
2022-10-04T19:48:24.916Z,10.6
2022-10-04T19:49:29.249Z,10.6
2022-10-04T19:50:43.637Z,10.6
2022-10-04T19:51:51.024Z,10.6
2022-10-04T19:52:55.047Z,10.6
2022-10-04T19:54:09.101Z,10.5
2022-10-04T19:55:11.636Z,10.5
2022-10-04T19:56:24.457Z,10.5
2022-10-04T19:57:34.017Z,10.4
2022-10-04T19:58:38.613Z,10.4
2022-10-04T19:59:42.852Z,10.4
2022-10-04T20:00:47.257Z,10.4
2022-10-04T20:01:51.584Z,10.4
2022-10-04T20:02:56.144Z,10.4
2022-10-04T20:04:00.236Z,10.5
2022-10-04T20:05:16.512Z,10.4
2022-10-04T20:06:21.125Z,10.4
2022-10-04T20:07:25.697Z,10.4
2022-10-04T20:08:29.892Z,10.4
2022-10-04T20:09:48.361Z,10.4
2022-10-04T20:11:02.868Z,10.4
2022-10-04T20:12:15.393Z,10.4
2022-10-04T20:13:30.704Z,10.4
2022-10-04T20:14:35.161Z,10.4
2022-10-04T20:15:39.637Z,10.3
2022-10-04T20:16:44.820Z,10.3
2022-10-04T20:17:52.197Z,10.3
2022-10-04T20:18:59.905Z,10.3
2022-10-04T20:20:04.428Z,10.3
2022-10-04T20:21:13.453Z,10.2
2022-10-04T20:22:18.459Z,10.1
2022-10-04T20:23:29.538Z,9.9
2022-10-04T20:24:36.448Z,9.9
2022-10-04T20:25:40.921Z,9.9
2022-10-04T20:26:53.541Z,9.9
2022-10-04T20:27:55.067Z,10
2022-10-04T20:29:02.884Z,10
2022-10-04T20:30:08.545Z,10.1
2022-10-04T20:31:17.232Z,10
2022-10-04T20:32:26.580Z,9.9
2022-10-04T20:33:34.753Z,9.9
2022-10-04T20:34:44.200Z,9.8
2022-10-04T20:35:48.480Z,9.8
2022-10-04T20:36:57.801Z,9.8
2022-10-04T20:38:27.668Z,9.8
2022-10-04T20:39:06.449Z,9.8
2022-10-04T20:40:10.860Z,9.9
2022-10-04T20:41:22.961Z,9.8
2022-10-04T20:42:30.206Z,9.9
2022-10-04T20:43:39.540Z,10
2022-10-04T20:44:54.092Z,10.1
2022-10-04T20:46:03.643Z,10
2022-10-04T20:47:07.969Z,10
2022-10-04T20:48:20.252Z,9.8
2022-10-04T20:49:27.304Z,9.8
2022-10-04T20:50:35.912Z,9.8
2022-10-04T20:51:41.142Z,9.8
2022-10-04T20:52:48.316Z,9.9
2022-10-04T20:53:52.567Z,9.9
2022-10-04T20:54:57.030Z,9.9
2022-10-04T20:56:01.261Z,9.9
2022-10-04T20:57:11.077Z,9.9
2022-10-04T20:58:15.428Z,9.9
2022-10-04T20:59:22.577Z,9.8
2022-10-04T21:00:30.012Z,9.6
2022-10-04T21:01:35.160Z,9.7
2022-10-04T21:02:45.583Z,9.8
2022-10-04T21:03:51.229Z,9.9
2022-10-04T21:04:55.549Z,9.9
2022-10-04T21:06:10.033Z,9.9
2022-10-04T21:07:14.755Z,9.9
2022-10-04T21:08:25.092Z,10
2022-10-04T21:09:29.469Z,9.8
2022-10-04T21:10:33.632Z,9.7
2022-10-04T21:11:41.797Z,9.8
2022-10-04T21:12:49.416Z,9.6
2022-10-04T21:13:53.769Z,9.5
2022-10-04T21:14:58.205Z,9.6
2022-10-04T21:16:02.863Z,9.7
2022-10-04T21:17:07.827Z,9.8
2022-10-04T21:18:22.092Z,9.7
2022-10-04T21:19:26.409Z,9.7
2022-10-04T21:20:37.765Z,9.7
2022-10-04T21:21:41.990Z,9.6
2022-10-04T21:22:53.290Z,9.6
2022-10-04T21:23:55.765Z,9.7
2022-10-04T21:25:00.067Z,9.7
2022-10-04T21:26:07.048Z,9.8
2022-10-04T21:27:21.377Z,9.8
2022-10-04T21:28:28.673Z,9.8
2022-10-04T21:29:34.873Z,9.9
2022-10-04T21:30:39.085Z,9.8
2022-10-04T21:31:43.651Z,9.8
2022-10-04T21:32:48.312Z,9.7
2022-10-04T21:33:52.689Z,9.8
2022-10-04T21:34:57.121Z,9.7
2022-10-04T21:36:01.568Z,9.8
2022-10-04T21:37:05.984Z,9.8
2022-10-04T21:38:10.256Z,9.8
2022-10-04T21:39:14.673Z,9.7
2022-10-04T21:40:19.292Z,9.7
2022-10-04T21:41:23.648Z,9.6
2022-10-04T21:42:27.932Z,9.6
2022-10-04T21:43:33.564Z,9.6
2022-10-04T21:44:38.028Z,9.6
2022-10-04T21:45:42.626Z,9.6
2022-10-04T21:46:47.821Z,9.6
2022-10-04T21:47:52.397Z,9.7
2022-10-04T21:48:58.849Z,9.7
2022-10-04T21:50:06.008Z,9.7
2022-10-04T21:51:10.432Z,9.7
2022-10-04T21:52:14.952Z,9.7
2022-10-04T21:53:19.333Z,9.7
2022-10-04T21:54:23.561Z,9.7
2022-10-04T21:55:27.767Z,9.7
2022-10-04T21:56:32.171Z,9.6
2022-10-04T21:57:36.420Z,9.6
2022-10-04T21:59:45.861Z,9.5
2022-10-04T22:00:51.015Z,9.4
2022-10-04T22:01:55.484Z,9.4
2022-10-04T22:02:59.718Z,9.4
2022-10-04T22:04:05.745Z,9.4
2022-10-04T22:05:10.634Z,9.4
2022-10-04T22:06:15.325Z,9.4
2022-10-04T22:07:19.632Z,9.5
2022-10-04T22:08:24.226Z,9.5
2022-10-04T22:09:28.606Z,9.5
2022-10-04T22:10:33.952Z,9.5
2022-10-04T22:11:38.219Z,9.4
2022-10-04T22:12:42.382Z,9.4
2022-10-04T22:13:46.637Z,9.4
2022-10-04T22:14:50.954Z,9.4
2022-10-04T22:15:55.355Z,9.4
2022-10-04T22:21:09.535Z,9.3
2022-10-04T22:22:13.801Z,9.3
2022-10-04T22:23:18.125Z,9.4
2022-10-04T22:24:25.535Z,9.5
2022-10-04T22:25:32.364Z,9.5
2022-10-04T22:26:39.268Z,9.5
2022-10-04T22:27:43.636Z,9.4
2022-10-04T22:28:47.828Z,9.4
2022-10-04T22:29:52.448Z,9.4
2022-10-04T22:30:56.708Z,9.4
2022-10-04T22:32:01.077Z,9.4
2022-10-04T22:33:05.352Z,9.4
2022-10-04T22:34:09.763Z,9.4
2022-10-04T22:35:16.611Z,9.4
2022-10-04T22:36:21.047Z,9.2
2022-10-04T22:37:27.795Z,9.2
2022-10-04T22:38:31.952Z,9.2
2022-10-04T22:39:36.143Z,9.3
2022-10-04T22:40:40.436Z,9.4
2022-10-04T22:41:44.867Z,9.4
2022-10-04T22:42:49.174Z,9.2
2022-10-04T22:43:53.600Z,9.3
2022-10-04T22:44:58.143Z,9.1
2022-10-04T22:46:02.617Z,9.1
2022-10-04T22:47:11.002Z,9.3
2022-10-04T22:48:15.235Z,9.4
2022-10-04T22:49:19.544Z,9.4
2022-10-04T22:50:29.167Z,9.4
2022-10-04T22:51:33.504Z,9.4
2022-10-04T22:52:37.836Z,9.3
2022-10-04T22:53:42.245Z,9.3
2022-10-04T22:54:46.469Z,9.3
2022-10-04T22:55:50.762Z,9.3
2022-10-04T22:56:55.011Z,9.3
2022-10-04T22:57:59.231Z,9.3
2022-10-04T22:59:03.453Z,9.3
2022-10-04T23:00:13.848Z,9.4
2022-10-04T23:01:18.121Z,9.2
2022-10-04T23:02:22.494Z,9.3
2022-10-04T23:03:29.348Z,9.3
2022-10-04T23:04:34.110Z,9.3
2022-10-04T23:05:38.456Z,9.4
2022-10-04T23:06:46.091Z,9.4
2022-10-04T23:07:55.100Z,9.5
2022-10-04T23:08:59.471Z,9.4
2022-10-04T23:10:04.067Z,9.4
2022-10-04T23:11:08.986Z,9.5
2022-10-04T23:12:13.238Z,9.4
2022-10-04T23:13:20.188Z,9.4
2022-10-04T23:14:26.604Z,9.4
2022-10-04T23:15:31.131Z,9.4
2022-10-04T23:16:36.423Z,9.4
2022-10-04T23:17:40.959Z,9.4
2022-10-04T23:18:45.283Z,9.4
2022-10-04T23:19:52.455Z,9.4
2022-10-04T23:20:56.707Z,9.3
2022-10-04T23:22:00.967Z,9.3
2022-10-04T23:23:05.628Z,9.4
2022-10-04T23:24:12.784Z,9.4
2022-10-04T23:25:17.327Z,9.5
2022-10-04T23:26:22.590Z,9.5
2022-10-04T23:27:27.055Z,9.5
2022-10-04T23:28:31.514Z,9.5
2022-10-04T23:29:37.664Z,9.4
2022-10-04T23:30:41.988Z,9.4
2022-10-04T23:31:46.760Z,9.4
2022-10-04T23:32:50.931Z,9.4
2022-10-04T23:34:58.809Z,9.3
2022-10-04T23:36:03.223Z,9.3
2022-10-04T23:37:12.751Z,9.3
2022-10-04T23:38:17.267Z,9.3
2022-10-04T23:39:21.857Z,9.2
2022-10-04T23:40:29.026Z,9.2
2022-10-04T23:41:33.416Z,9.2
2022-10-04T23:42:37.879Z,9.1
2022-10-04T23:43:42.436Z,9.2
2022-10-04T23:44:46.807Z,9.2
2022-10-04T23:45:51.395Z,9.3
2022-10-04T23:46:55.836Z,9.3
2022-10-04T23:48:00.307Z,9.3
2022-10-04T23:49:04.616Z,9.3
2022-10-04T23:50:13.867Z,9.3
2022-10-04T23:51:20.962Z,9.2
2022-10-04T23:52:29.864Z,9.2
2022-10-04T23:53:37.074Z,9.2
2022-10-04T23:54:41.671Z,9.3
2022-10-04T23:55:46.003Z,9.3
2022-10-04T23:56:50.176Z,9
2022-10-04T23:57:54.643Z,9
2022-10-04T23:58:58.927Z,8.9
